sensor_id;sensor_type;location;lat;lon;timestamp;pressure;altitude;pressure_sealevel;temperature;humidity
68628;BME280;55611;48.602;9.490;2023-02-22T00:02:25;96830;;;8.5;55
68628;BME280;55611;48.602;9.490;2023-02-22T00:04:55;96830;;;8.4;55
68628;BME280;55611;48.602;9.490;2023-02-22T00:07:26;96830;;;8.4;55
68628;BME280;55611;48.602;9.490;2023-02-22T00:09:57;96830;;;8.4;55
68628;BME280;55611;48.602;9.490;2023-02-22T00:12:27;96830;;;8.5;55
68628;BME280;55611;48.602;9.490;2023-02-22T00:14:58;96830;;;8.8;55
68628;BME280;55611;48.602;9.490;2023-02-22T00:17:28;96830;;;9.2;55
68628;BME280;55611;48.602;9.490;2023-02-22T00:19:59;96820;;;9.3;55
68628;BME280;55611;48.602;9.490;2023-02-22T00:22:29;96830;;;9.1;55
68628;BME280;55611;48.602;9.490;2023-02-22T00:25:00;96830;;;8.8;55
68628;BME280;55611;48.602;9.490;2023-02-22T00:27:30;96820;;;8.6;55
68628;BME280;55611;48.602;9.490;2023-02-22T00:30:02;96820;;;8.4;55
68628;BME280;55611;48.602;9.490;2023-02-22T00:32:31;96820;;;8.4;55
68628;BME280;55611;48.602;9.490;2023-02-22T00:35:02;96820;;;8.3;55
68628;BME280;55611;48.602;9.490;2023-02-22T00:37:32;96820;;;8.2;55
68628;BME280;55611;48.602;9.490;2023-02-22T00:40:03;96820;;;8.2;55
68628;BME280;55611;48.602;9.490;2023-02-22T00:42:33;96820;;;8.1;55
68628;BME280;55611;48.602;9.490;2023-02-22T00:45:04;96820;;;8;55
68628;BME280;55611;48.602;9.490;2023-02-22T00:47:34;96830;;;8;55
68628;BME280;55611;48.602;9.490;2023-02-22T00:50:05;96820;;;8;55
68628;BME280;55611;48.602;9.490;2023-02-22T00:52:36;96820;;;8;55
68628;BME280;55611;48.602;9.490;2023-02-22T00:55:07;96820;;;8;55
68628;BME280;55611;48.602;9.490;2023-02-22T00:57:36;96810;;;7.9;55
68628;BME280;55611;48.602;9.490;2023-02-22T01:00:08;96810;;;7.9;55
68628;BME280;55611;48.602;9.490;2023-02-22T01:02:39;96800;;;7.9;55
68628;BME280;55611;48.602;9.490;2023-02-22T01:05:09;96800;;;8;55
68628;BME280;55611;48.602;9.490;2023-02-22T01:07:39;96800;;;8;55
68628;BME280;55611;48.602;9.490;2023-02-22T01:10:09;96790;;;8;55
68628;BME280;55611;48.602;9.490;2023-02-22T01:12:40;96790;;;8.1;55
68628;BME280;55611;48.602;9.490;2023-02-22T01:15:10;96790;;;8.1;55
68628;BME280;55611;48.602;9.490;2023-02-22T01:17:40;96790;;;8.1;55
68628;BME280;55611;48.602;9.490;2023-02-22T01:20:11;96790;;;8.2;55
68628;BME280;55611;48.602;9.490;2023-02-22T01:22:42;96790;;;8.2;55
68628;BME280;55611;48.602;9.490;2023-02-22T01:25:16;96780;;;8.2;55
68628;BME280;55611;48.602;9.490;2023-02-22T01:27:43;96780;;;8.3;55
68628;BME280;55611;48.602;9.490;2023-02-22T01:30:13;96780;;;8.6;55
68628;BME280;55611;48.602;9.490;2023-02-22T01:32:43;96780;;;8.7;55
68628;BME280;55611;48.602;9.490;2023-02-22T01:35:15;96780;;;8.7;55
68628;BME280;55611;48.602;9.490;2023-02-22T01:37:45;96780;;;8.6;55
68628;BME280;55611;48.602;9.490;2023-02-22T01:40:17;96780;;;8.5;55
68628;BME280;55611;48.602;9.490;2023-02-22T01:42:47;96790;;;8.6;55
68628;BME280;55611;48.602;9.490;2023-02-22T01:45:37;96780;;;8.7;55
68628;BME280;55611;48.602;9.490;2023-02-22T01:47:47;96790;;;8.7;55
68628;BME280;55611;48.602;9.490;2023-02-22T01:50:17;96770;;;8.8;55
68628;BME280;55611;48.602;9.490;2023-02-22T01:52:48;96770;;;8.9;55
68628;BME280;55611;48.602;9.490;2023-02-22T01:55:18;96770;;;8.8;55
68628;BME280;55611;48.602;9.490;2023-02-22T02:00:19;96770;;;8.8;55
68628;BME280;55611;48.602;9.490;2023-02-22T02:02:51;96770;;;8.6;55
68628;BME280;55611;48.602;9.490;2023-02-22T02:05:20;96770;;;8.5;55
68628;BME280;55611;48.602;9.490;2023-02-22T02:07:51;96770;;;8.5;55
68628;BME280;55611;48.602;9.490;2023-02-22T02:10:21;96760;;;8.5;55
68628;BME280;55611;48.602;9.490;2023-02-22T02:12:52;96760;;;8.4;55
68628;BME280;55611;48.602;9.490;2023-02-22T02:15:25;96760;;;8.3;55
68628;BME280;55611;48.602;9.490;2023-02-22T02:17:53;96760;;;8.2;55
68628;BME280;55611;48.602;9.490;2023-02-22T02:20:30;96760;;;8.1;55
68628;BME280;55611;48.602;9.490;2023-02-22T02:23:03;96750;;;8;55
68628;BME280;55611;48.602;9.490;2023-02-22T02:25:31;96750;;;7.9;55
68628;BME280;55611;48.602;9.490;2023-02-22T02:28:00;96750;;;7.8;55
68628;BME280;55611;48.602;9.490;2023-02-22T02:33:02;96740;;;7.7;55.5
68628;BME280;55611;48.602;9.490;2023-02-22T02:35:28;96740;;;7.6;55.5
68628;BME280;55611;48.602;9.490;2023-02-22T02:38:03;96730;;;7.6;55.5
68628;BME280;55611;48.602;9.490;2023-02-22T02:40:31;96730;;;7.6;55.5
68628;BME280;55611;48.602;9.490;2023-02-22T02:43:00;96730;;;7.6;55.5
68628;BME280;55611;48.602;9.490;2023-02-22T02:45:32;96720;;;7.6;55.5
68628;BME280;55611;48.602;9.490;2023-02-22T02:47:59;96720;;;7.6;55.5
68628;BME280;55611;48.602;9.490;2023-02-22T02:50:33;96710;;;7.6;55.5
68628;BME280;55611;48.602;9.490;2023-02-22T02:53:01;96710;;;7.6;55.5
68628;BME280;55611;48.602;9.490;2023-02-22T02:55:31;96710;;;7.6;55.5
68628;BME280;55611;48.602;9.490;2023-02-22T02:58:02;96710;;;7.5;55.5
68628;BME280;55611;48.602;9.490;2023-02-22T03:00:35;96700;;;7.6;55.5
68628;BME280;55611;48.602;9.490;2023-02-22T03:05:37;96700;;;7.7;55.5
68628;BME280;55611;48.602;9.490;2023-02-22T03:08:07;96690;;;7.7;55.5
68628;BME280;55611;48.602;9.490;2023-02-22T03:10:37;96690;;;7.7;55.5
68628;BME280;55611;48.602;9.490;2023-02-22T03:13:08;96690;;;7.7;55.5
68628;BME280;55611;48.602;9.490;2023-02-22T03:15:43;96690;;;7.6;55.5
68628;BME280;55611;48.602;9.490;2023-02-22T03:18:06;96680;;;7.6;55.5
68628;BME280;55611;48.602;9.490;2023-02-22T03:20:40;96690;;;7.7;55.5
68628;BME280;55611;48.602;9.490;2023-02-22T03:23:09;96690;;;8;55.5
68628;BME280;55611;48.602;9.490;2023-02-22T03:25:38;96680;;;8.1;55.5
68628;BME280;55611;48.602;9.490;2023-02-22T03:28:09;96690;;;8.3;55.5
68628;BME280;55611;48.602;9.490;2023-02-22T03:30:40;96680;;;8.2;55.5
68628;BME280;55611;48.602;9.490;2023-02-22T03:33:10;96680;;;7.9;56
68628;BME280;55611;48.602;9.490;2023-02-22T03:35:44;96680;;;7.7;56
68628;BME280;55611;48.602;9.490;2023-02-22T03:38:10;96680;;;7.6;56
68628;BME280;55611;48.602;9.490;2023-02-22T03:43:13;96670;;;7.4;56
68628;BME280;55611;48.602;9.490;2023-02-22T03:45:42;96670;;;7.5;56
68628;BME280;55611;48.602;9.490;2023-02-22T03:48:15;96670;;;7.5;56
68628;BME280;55611;48.602;9.490;2023-02-22T03:50:42;96670;;;7.5;56
68628;BME280;55611;48.602;9.490;2023-02-22T03:53:12;96670;;;7.5;56
68628;BME280;55611;48.602;9.490;2023-02-22T03:55:43;96670;;;7.5;55.5
68628;BME280;55611;48.602;9.490;2023-02-22T03:58:14;96670;;;7.5;55.5
68628;BME280;55611;48.602;9.490;2023-02-22T04:00:44;96670;;;7.5;56
68628;BME280;55611;48.602;9.490;2023-02-22T04:03:14;96670;;;7.5;55.5
68628;BME280;55611;48.602;9.490;2023-02-22T04:05:45;96670;;;7.4;55.5
68628;BME280;55611;48.602;9.490;2023-02-22T04:08:16;96670;;;7.5;55.5
68628;BME280;55611;48.602;9.490;2023-02-22T04:10:46;96670;;;7.8;55.5
68628;BME280;55611;48.602;9.490;2023-02-22T04:13:17;96680;;;8;55.5
68628;BME280;55611;48.602;9.490;2023-02-22T04:15:47;96670;;;8.1;56
68628;BME280;55611;48.602;9.490;2023-02-22T04:18:18;96680;;;8;56
68628;BME280;55611;48.602;9.490;2023-02-22T04:20:48;96680;;;8;56
68628;BME280;55611;48.602;9.490;2023-02-22T04:23:19;96680;;;7.9;56
68628;BME280;55611;48.602;9.490;2023-02-22T04:25:49;96680;;;7.7;56
68628;BME280;55611;48.602;9.490;2023-02-22T04:28:20;96670;;;7.7;56
68628;BME280;55611;48.602;9.490;2023-02-22T04:30:50;96670;;;7.5;56
68628;BME280;55611;48.602;9.490;2023-02-22T04:33:21;96670;;;7.3;56
68628;BME280;55611;48.602;9.490;2023-02-22T04:35:51;96670;;;7.2;56
68628;BME280;55611;48.602;9.490;2023-02-22T04:38:22;96670;;;7.1;56
68628;BME280;55611;48.602;9.490;2023-02-22T04:40:52;96670;;;7;56
68628;BME280;55611;48.602;9.490;2023-02-22T04:43:23;96670;;;6.9;56
68628;BME280;55611;48.602;9.490;2023-02-22T04:45:53;96670;;;6.9;56
68628;BME280;55611;48.602;9.490;2023-02-22T04:48:24;96660;;;6.9;56
68628;BME280;55611;48.602;9.490;2023-02-22T04:50:54;96670;;;7.1;56
68628;BME280;55611;48.602;9.490;2023-02-22T04:53:25;96660;;;7.1;56
68628;BME280;55611;48.602;9.490;2023-02-22T04:55:55;96660;;;7.1;56
68628;BME280;55611;48.602;9.490;2023-02-22T04:58:26;96660;;;7.1;56
68628;BME280;55611;48.602;9.490;2023-02-22T05:00:56;96660;;;7.1;56
68628;BME280;55611;48.602;9.490;2023-02-22T05:03:27;96660;;;7.1;56
68628;BME280;55611;48.602;9.490;2023-02-22T05:05:57;96660;;;7.2;56
68628;BME280;55611;48.602;9.490;2023-02-22T05:08:28;96650;;;7.1;56
68628;BME280;55611;48.602;9.490;2023-02-22T05:13:29;96650;;;7.1;56
68628;BME280;55611;48.602;9.490;2023-02-22T05:15:59;96650;;;7.3;56
68628;BME280;55611;48.602;9.490;2023-02-22T05:18:30;96650;;;7.3;56
68628;BME280;55611;48.602;9.490;2023-02-22T05:21:00;96650;;;7.4;56
68628;BME280;55611;48.602;9.490;2023-02-22T05:23:31;96650;;;7.4;56
68628;BME280;55611;48.602;9.490;2023-02-22T05:26:02;96650;;;7.4;56
68628;BME280;55611;48.602;9.490;2023-02-22T05:28:32;96640;;;7.3;56
68628;BME280;55611;48.602;9.490;2023-02-22T05:31:02;96640;;;7.2;56
68628;BME280;55611;48.602;9.490;2023-02-22T05:33:33;96640;;;7.1;56
68628;BME280;55611;48.602;9.490;2023-02-22T05:36:04;96650;;;7.1;56
68628;BME280;55611;48.602;9.490;2023-02-22T05:38:35;96650;;;7.1;56
68628;BME280;55611;48.602;9.490;2023-02-22T05:41:05;96650;;;7.1;56
68628;BME280;55611;48.602;9.490;2023-02-22T05:43:35;96650;;;7;56
68628;BME280;55611;48.602;9.490;2023-02-22T05:46:06;96650;;;7;56
68628;BME280;55611;48.602;9.490;2023-02-22T05:48:36;96650;;;7;56
68628;BME280;55611;48.602;9.490;2023-02-22T05:51:07;96640;;;7;56
68628;BME280;55611;48.602;9.490;2023-02-22T05:53:37;96640;;;6.9;56
68628;BME280;55611;48.602;9.490;2023-02-22T05:56:08;96640;;;6.8;56
68628;BME280;55611;48.602;9.490;2023-02-22T05:58:38;96640;;;6.8;56
68628;BME280;55611;48.602;9.490;2023-02-22T06:01:09;96640;;;6.8;56
68628;BME280;55611;48.602;9.490;2023-02-22T06:03:39;96640;;;6.7;56
68628;BME280;55611;48.602;9.490;2023-02-22T06:06:10;96640;;;6.7;56
68628;BME280;55611;48.602;9.490;2023-02-22T06:08:40;96630;;;6.6;56
68628;BME280;55611;48.602;9.490;2023-02-22T06:13:41;96640;;;6.5;56
68628;BME280;55611;48.602;9.490;2023-02-22T06:16:12;96640;;;6.5;56
68628;BME280;55611;48.602;9.490;2023-02-22T06:18:42;96640;;;6.5;56
68628;BME280;55611;48.602;9.490;2023-02-22T06:21:13;96640;;;6.5;56
68628;BME280;55611;48.602;9.490;2023-02-22T06:23:43;96650;;;6.4;56
68628;BME280;55611;48.602;9.490;2023-02-22T06:26:15;96650;;;6.4;56
68628;BME280;55611;48.602;9.490;2023-02-22T06:28:45;96650;;;6.4;56
68628;BME280;55611;48.602;9.490;2023-02-22T06:31:15;96650;;;6.5;56
68628;BME280;55611;48.602;9.490;2023-02-22T06:33:45;96650;;;6.5;56
68628;BME280;55611;48.602;9.490;2023-02-22T06:36:16;96650;;;6.5;56
68628;BME280;55611;48.602;9.490;2023-02-22T06:38:46;96650;;;6.5;56
68628;BME280;55611;48.602;9.490;2023-02-22T06:41:17;96650;;;6.5;56
68628;BME280;55611;48.602;9.490;2023-02-22T06:43:47;96650;;;6.6;56
68628;BME280;55611;48.602;9.490;2023-02-22T06:46:18;96640;;;6.6;56
68628;BME280;55611;48.602;9.490;2023-02-22T06:48:48;96650;;;6.6;56.5
68628;BME280;55611;48.602;9.490;2023-02-22T06:51:19;96640;;;6.7;56.5
68628;BME280;55611;48.602;9.490;2023-02-22T06:53:49;96650;;;6.8;56.5
68628;BME280;55611;48.602;9.490;2023-02-22T06:56:20;96650;;;7;56.5
68628;BME280;55611;48.602;9.490;2023-02-22T06:58:50;96650;;;7.1;56
68628;BME280;55611;48.602;9.490;2023-02-22T07:01:21;96650;;;7.3;56
68628;BME280;55611;48.602;9.490;2023-02-22T07:03:52;96650;;;7.4;56
68628;BME280;55611;48.602;9.490;2023-02-22T07:06:22;96650;;;7.5;56
68628;BME280;55611;48.602;9.490;2023-02-22T07:08:53;96650;;;7.6;56
68628;BME280;55611;48.602;9.490;2023-02-22T07:11:23;96650;;;7.7;56.5
68628;BME280;55611;48.602;9.490;2023-02-22T07:13:54;96650;;;7.9;56.5
68628;BME280;55611;48.602;9.490;2023-02-22T07:16:24;96650;;;8;56.5
68628;BME280;55611;48.602;9.490;2023-02-22T07:18:55;96650;;;8.1;56.5
68628;BME280;55611;48.602;9.490;2023-02-22T07:21:26;96650;;;8.1;56.5
68628;BME280;55611;48.602;9.490;2023-02-22T07:23:56;96640;;;8.3;56.5
68628;BME280;55611;48.602;9.490;2023-02-22T07:26:26;96650;;;8.5;56.5
68628;BME280;55611;48.602;9.490;2023-02-22T07:28:57;96640;;;8.7;56.5
68628;BME280;55611;48.602;9.490;2023-02-22T07:31:27;96640;;;8.8;56.5
68628;BME280;55611;48.602;9.490;2023-02-22T07:33:58;96630;;;8.9;56.5
68628;BME280;55611;48.602;9.490;2023-02-22T07:36:28;96640;;;9;57
68628;BME280;55611;48.602;9.490;2023-02-22T07:38:59;96630;;;9;57
68628;BME280;55611;48.602;9.490;2023-02-22T07:41:29;96630;;;9.1;57
68628;BME280;55611;48.602;9.490;2023-02-22T07:44:00;96630;;;9.2;57
68628;BME280;55611;48.602;9.490;2023-02-22T07:46:30;96620;;;9.3;57
68628;BME280;55611;48.602;9.490;2023-02-22T07:49:01;96630;;;9.4;57
68628;BME280;55611;48.602;9.490;2023-02-22T07:51:31;96630;;;9.4;57
68628;BME280;55611;48.602;9.490;2023-02-22T07:54:02;96630;;;9.5;57
68628;BME280;55611;48.602;9.490;2023-02-22T07:56:32;96630;;;9.6;57
68628;BME280;55611;48.602;9.490;2023-02-22T07:59:03;96630;;;9.8;57
68628;BME280;55611;48.602;9.490;2023-02-22T08:01:33;96630;;;9.8;57
68628;BME280;55611;48.602;9.490;2023-02-22T08:04:04;96630;;;9.8;57
68628;BME280;55611;48.602;9.490;2023-02-22T08:06:34;96630;;;9.7;57
68628;BME280;55611;48.602;9.490;2023-02-22T08:09:05;96630;;;9.5;57
68628;BME280;55611;48.602;9.490;2023-02-22T08:11:35;96630;;;9.4;57
68628;BME280;55611;48.602;9.490;2023-02-22T08:14:06;96630;;;9.4;57
68628;BME280;55611;48.602;9.490;2023-02-22T08:16:36;96630;;;9.3;57
68628;BME280;55611;48.602;9.490;2023-02-22T08:19:07;96640;;;9.3;57
68628;BME280;55611;48.602;9.490;2023-02-22T08:21:38;96630;;;9.3;57
68628;BME280;55611;48.602;9.490;2023-02-22T08:24:08;96630;;;9.3;57
68628;BME280;55611;48.602;9.490;2023-02-22T08:26:46;96640;;;9.3;57
68628;BME280;55611;48.602;9.490;2023-02-22T08:29:09;96640;;;9.4;57
68628;BME280;55611;48.602;9.490;2023-02-22T08:31:40;96630;;;9.4;57
68628;BME280;55611;48.602;9.490;2023-02-22T08:34:10;96640;;;9.4;57.5
68628;BME280;55611;48.602;9.490;2023-02-22T08:36:41;96640;;;9.4;57.5
68628;BME280;55611;48.602;9.490;2023-02-22T08:39:11;96640;;;9.4;57.5
68628;BME280;55611;48.602;9.490;2023-02-22T08:41:42;96640;;;9.4;57.5
68628;BME280;55611;48.602;9.490;2023-02-22T08:44:12;96640;;;9.4;57.5
68628;BME280;55611;48.602;9.490;2023-02-22T08:46:43;96640;;;9.4;57.5
68628;BME280;55611;48.602;9.490;2023-02-22T08:49:13;96640;;;9.4;57.5
68628;BME280;55611;48.602;9.490;2023-02-22T08:51:44;96640;;;9.5;57.5
68628;BME280;55611;48.602;9.490;2023-02-22T08:54:14;96640;;;9.6;57
68628;BME280;55611;48.602;9.490;2023-02-22T08:56:45;96640;;;9.8;57
68628;BME280;55611;48.602;9.490;2023-02-22T08:59:16;96640;;;9.8;57.5
68628;BME280;55611;48.602;9.490;2023-02-22T09:01:46;96640;;;9.9;57.5
68628;BME280;55611;48.602;9.490;2023-02-22T09:04:16;96640;;;10.1;57.5
68628;BME280;55611;48.602;9.490;2023-02-22T09:06:47;96640;;;10.1;57.5
68628;BME280;55611;48.602;9.490;2023-02-22T09:09:18;96630;;;10.3;57.5
68628;BME280;55611;48.602;9.490;2023-02-22T09:11:48;96630;;;10.4;57.5
68628;BME280;55611;48.602;9.490;2023-02-22T09:14:18;96630;;;10.5;57.5
68628;BME280;55611;48.602;9.490;2023-02-22T09:16:49;96630;;;10.6;57.5
68628;BME280;55611;48.602;9.490;2023-02-22T09:19:19;96630;;;10.7;57.5
68628;BME280;55611;48.602;9.490;2023-02-22T09:21:53;96630;;;10.8;57.5
68628;BME280;55611;48.602;9.490;2023-02-22T09:24:20;96630;;;10.9;57.5
68628;BME280;55611;48.602;9.490;2023-02-22T09:26:51;96630;;;11;57.5
68628;BME280;55611;48.602;9.490;2023-02-22T09:29:22;96630;;;11.1;57.5
68628;BME280;55611;48.602;9.490;2023-02-22T09:31:53;96630;;;11.2;57
68628;BME280;55611;48.602;9.490;2023-02-22T09:34:23;96630;;;11.4;57
68628;BME280;55611;48.602;9.490;2023-02-22T09:36:53;96630;;;11.4;57
68628;BME280;55611;48.602;9.490;2023-02-22T09:39:23;96630;;;11.5;57
68628;BME280;55611;48.602;9.490;2023-02-22T09:43:01;96630;;;11.5;57
68628;BME280;55611;48.602;9.490;2023-02-22T09:44:31;96640;;;11.7;57
68628;BME280;55611;48.602;9.490;2023-02-22T09:46:56;96630;;;11.8;57
68628;BME280;55611;48.602;9.490;2023-02-22T09:49:28;96630;;;11.9;57
68628;BME280;55611;48.602;9.490;2023-02-22T09:51:59;96630;;;12;57
68628;BME280;55611;48.602;9.490;2023-02-22T09:54:31;96630;;;12;57
68628;BME280;55611;48.602;9.490;2023-02-22T09:56:57;96630;;;12.1;57
68628;BME280;55611;48.602;9.490;2023-02-22T09:59:30;96630;;;12.2;57
68628;BME280;55611;48.602;9.490;2023-02-22T10:02:01;96630;;;12.3;57
68628;BME280;55611;48.602;9.490;2023-02-22T10:04:34;96630;;;12.3;57
68628;BME280;55611;48.602;9.490;2023-02-22T10:07:02;96630;;;12.5;57
68628;BME280;55611;48.602;9.490;2023-02-22T10:09:30;96630;;;12.6;57
68628;BME280;55611;48.602;9.490;2023-02-22T10:12:01;96620;;;12.7;57
68628;BME280;55611;48.602;9.490;2023-02-22T10:14:47;96620;;;12.7;57
68628;BME280;55611;48.602;9.490;2023-02-22T10:19:38;96620;;;12.9;57
68628;BME280;55611;48.602;9.490;2023-02-22T10:22:07;96620;;;13;57
68628;BME280;55611;48.602;9.490;2023-02-22T10:24:37;96610;;;13.1;57
68628;BME280;55611;48.602;9.490;2023-02-22T10:27:05;96610;;;13.1;57
68628;BME280;55611;48.602;9.490;2023-02-22T10:29:36;96620;;;13.1;57
68628;BME280;55611;48.602;9.490;2023-02-22T10:32:05;96610;;;13.1;57
68628;BME280;55611;48.602;9.490;2023-02-22T10:34:37;96610;;;13.1;56.5
68628;BME280;55611;48.602;9.490;2023-02-22T10:37:15;96610;;;13.1;56.5
68628;BME280;55611;48.602;9.490;2023-02-22T10:39:37;96610;;;13.2;56.5
68628;BME280;55611;48.602;9.490;2023-02-22T10:42:06;96610;;;13.3;56.5
68628;BME280;55611;48.602;9.490;2023-02-22T10:44:37;96610;;;13.4;56.5
68628;BME280;55611;48.602;9.490;2023-02-22T10:47:09;96610;;;13.5;56.5
68628;BME280;55611;48.602;9.490;2023-02-22T10:49:39;96600;;;13.5;56.5
68628;BME280;55611;48.602;9.490;2023-02-22T10:52:11;96600;;;13.6;56.5
68628;BME280;55611;48.602;9.490;2023-02-22T10:54:40;96610;;;13.7;56.5
68628;BME280;55611;48.602;9.490;2023-02-22T10:57:09;96600;;;13.8;56.5
68628;BME280;55611;48.602;9.490;2023-02-22T10:59:40;96600;;;13.9;56.5
68628;BME280;55611;48.602;9.490;2023-02-22T11:02:18;96600;;;13.9;56.5
68628;BME280;55611;48.602;9.490;2023-02-22T11:04:43;96590;;;13.9;56.5
68628;BME280;55611;48.602;9.490;2023-02-22T11:07:20;96590;;;14;56.5
68628;BME280;55611;48.602;9.490;2023-02-22T11:09:46;96590;;;14.1;56.5
68628;BME280;55611;48.602;9.490;2023-02-22T11:12:17;96590;;;14.2;56.5
68628;BME280;55611;48.602;9.490;2023-02-22T11:14:43;96580;;;14.3;56.5
68628;BME280;55611;48.602;9.490;2023-02-22T11:17:15;96580;;;14.6;56.5
68628;BME280;55611;48.602;9.490;2023-02-22T11:19:45;96570;;;14.8;56.5
68628;BME280;55611;48.602;9.490;2023-02-22T11:22:20;96570;;;14.8;56.5
68628;BME280;55611;48.602;9.490;2023-02-22T11:24:49;96570;;;14.9;56
68628;BME280;55611;48.602;9.490;2023-02-22T11:27:21;96560;;;15;56
68628;BME280;55611;48.602;9.490;2023-02-22T11:29:46;96560;;;15;56
68628;BME280;55611;48.602;9.490;2023-02-22T11:32:18;96560;;;15.1;56
68628;BME280;55611;48.602;9.490;2023-02-22T11:34:48;96560;;;15.2;56
68628;BME280;55611;48.602;9.490;2023-02-22T11:37:25;96560;;;15.3;56
68628;BME280;55611;48.602;9.490;2023-02-22T11:39:53;96560;;;15.3;56
68628;BME280;55611;48.602;9.490;2023-02-22T11:42:20;96550;;;15.3;56
68628;BME280;55611;48.602;9.490;2023-02-22T11:45:06;96550;;;15.5;56
68628;BME280;55611;48.602;9.490;2023-02-22T11:47:20;96550;;;15.5;56
68628;BME280;55611;48.602;9.490;2023-02-22T11:49:50;96550;;;15.6;56
68628;BME280;55611;48.602;9.490;2023-02-22T11:52:23;96540;;;15.5;56
68628;BME280;55611;48.602;9.490;2023-02-22T11:54:57;96540;;;15.5;56
68628;BME280;55611;48.602;9.490;2023-02-22T12:00:02;96540;;;15.5;56
68628;BME280;55611;48.602;9.490;2023-02-22T12:04:59;96530;;;15.5;55.5
68628;BME280;55611;48.602;9.490;2023-02-22T12:07:29;96530;;;15.4;55.5
68628;BME280;55611;48.602;9.490;2023-02-22T12:10:05;96520;;;15.5;55.5
68628;BME280;55611;48.602;9.490;2023-02-22T12:12:32;96520;;;15.5;55.5
68628;BME280;55611;48.602;9.490;2023-02-22T12:17:43;96510;;;15.6;55.5
68628;BME280;55611;48.602;9.490;2023-02-22T12:20:00;96510;;;15.9;55.5
68628;BME280;55611;48.602;9.490;2023-02-22T12:22:29;96510;;;16;55.5
68628;BME280;55611;48.602;9.490;2023-02-22T12:24:59;96500;;;16.2;55.5
68628;BME280;55611;48.602;9.490;2023-02-22T12:27:30;96500;;;16.3;55.5
68628;BME280;55611;48.602;9.490;2023-02-22T12:30:02;96500;;;16.2;55.5
68628;BME280;55611;48.602;9.490;2023-02-22T12:32:37;96500;;;16.4;55.5
68628;BME280;55611;48.602;9.490;2023-02-22T12:35:02;96500;;;16.5;55.5
68628;BME280;55611;48.602;9.490;2023-02-22T12:37:35;96500;;;16.5;55.5
68628;BME280;55611;48.602;9.490;2023-02-22T12:40:03;96500;;;16.4;55.5
68628;BME280;55611;48.602;9.490;2023-02-22T12:42:33;96490;;;16.3;55.5
68628;BME280;55611;48.602;9.490;2023-02-22T12:45:03;96490;;;16.3;55
68628;BME280;55611;48.602;9.490;2023-02-22T12:47:36;96490;;;16.3;55
68628;BME280;55611;48.602;9.490;2023-02-22T12:50:19;96490;;;16.3;55
68628;BME280;55611;48.602;9.490;2023-02-22T12:52:37;96490;;;16.3;55
68628;BME280;55611;48.602;9.490;2023-02-22T12:55:20;96490;;;16.4;55
68628;BME280;55611;48.602;9.490;2023-02-22T12:57:36;96490;;;16.3;55
68628;BME280;55611;48.602;9.490;2023-02-22T13:00:08;96480;;;16.4;55
68628;BME280;55611;48.602;9.490;2023-02-22T13:02:40;96490;;;16.4;55
68628;BME280;55611;48.602;9.490;2023-02-22T13:05:11;96480;;;16.4;55
68628;BME280;55611;48.602;9.490;2023-02-22T13:07:40;96480;;;16.4;55
68628;BME280;55611;48.602;9.490;2023-02-22T13:10:15;96480;;;16.6;55
68628;BME280;55611;48.602;9.490;2023-02-22T13:12:40;96480;;;16.6;55
68628;BME280;55611;48.602;9.490;2023-02-22T13:15:16;96480;;;16.7;55
68628;BME280;55611;48.602;9.490;2023-02-22T13:17:41;96470;;;16.8;54.5
68628;BME280;55611;48.602;9.490;2023-02-22T13:20:18;96470;;;16.8;54.5
68628;BME280;55611;48.602;9.490;2023-02-22T13:22:43;96470;;;16.8;54.5
68628;BME280;55611;48.602;9.490;2023-02-22T13:25:13;96470;;;16.8;54.5
68628;BME280;55611;48.602;9.490;2023-02-22T13:27:42;96470;;;16.9;54.5
68628;BME280;55611;48.602;9.490;2023-02-22T13:30:14;96470;;;16.9;54.5
68628;BME280;55611;48.602;9.490;2023-02-22T13:35:18;96460;;;17;54.5
68628;BME280;55611;48.602;9.490;2023-02-22T13:37:54;96460;;;17.1;54.5
68628;BME280;55611;48.602;9.490;2023-02-22T13:40:22;96460;;;17.1;54.5
68628;BME280;55611;48.602;9.490;2023-02-22T13:42:48;96460;;;17.1;54.5
68628;BME280;55611;48.602;9.490;2023-02-22T13:46:25;96460;;;17.1;54.5
68628;BME280;55611;48.602;9.490;2023-02-22T13:52:46;96470;;;17;54.5
68628;BME280;55611;48.602;9.490;2023-02-22T13:55:18;96460;;;17.1;54.5
68628;BME280;55611;48.602;9.490;2023-02-22T13:57:47;96460;;;17.1;54.5
68628;BME280;55611;48.602;9.490;2023-02-22T14:00:19;96470;;;17;54.5
68628;BME280;55611;48.602;9.490;2023-02-22T14:03:51;96460;;;17;54.5
68628;BME280;55611;48.602;9.490;2023-02-22T14:05:50;96470;;;17;54.5
68628;BME280;55611;48.602;9.490;2023-02-22T14:07:49;96470;;;16.9;54
68628;BME280;55611;48.602;9.490;2023-02-22T14:10:52;96470;;;16.9;54
68628;BME280;55611;48.602;9.490;2023-02-22T14:15:20;96480;;;16.8;54
68628;BME280;55611;48.602;9.490;2023-02-22T14:17:58;96470;;;16.7;54
68628;BME280;55611;48.602;9.490;2023-02-22T14:20:23;96460;;;16.6;54
68628;BME280;55611;48.602;9.490;2023-02-22T14:22:52;96460;;;16.6;54
68628;BME280;55611;48.602;9.490;2023-02-22T14:25:30;96460;;;16.5;54
68628;BME280;55611;48.602;9.490;2023-02-22T14:27:53;96460;;;16.5;54
68628;BME280;55611;48.602;9.490;2023-02-22T14:30:24;96460;;;16.6;54
68628;BME280;55611;48.602;9.490;2023-02-22T14:32:54;96460;;;16.6;54
68628;BME280;55611;48.602;9.490;2023-02-22T14:35:25;96460;;;16.7;54
68628;BME280;55611;48.602;9.490;2023-02-22T14:37:56;96470;;;16.7;54
68628;BME280;55611;48.602;9.490;2023-02-22T14:40:26;96470;;;16.6;54
68628;BME280;55611;48.602;9.490;2023-02-22T14:42:57;96470;;;16.7;54
68628;BME280;55611;48.602;9.490;2023-02-22T14:45:27;96470;;;16.6;53.5
68628;BME280;55611;48.602;9.490;2023-02-22T14:47:59;96470;;;16.5;53.5
68628;BME280;55611;48.602;9.490;2023-02-22T14:50:45;96470;;;16.5;53.5
68628;BME280;55611;48.602;9.490;2023-02-22T14:53:32;96470;;;16.4;53.5
68628;BME280;55611;48.602;9.490;2023-02-22T14:55:29;96470;;;16.4;53.5
68628;BME280;55611;48.602;9.490;2023-02-22T14:58:01;96470;;;16.3;53.5
68628;BME280;55611;48.602;9.490;2023-02-22T15:00:38;96470;;;16.3;53.5
68628;BME280;55611;48.602;9.490;2023-02-22T15:03:00;96470;;;16.2;53.5
68628;BME280;55611;48.602;9.490;2023-02-22T15:05:35;96470;;;16.2;53.5
68628;BME280;55611;48.602;9.490;2023-02-22T15:08:03;96470;;;16.1;53.5
68628;BME280;55611;48.602;9.490;2023-02-22T15:13:04;96470;;;16.1;53.5
68628;BME280;55611;48.602;9.490;2023-02-22T15:15:34;96470;;;16.1;53.5
68628;BME280;55611;48.602;9.490;2023-02-22T15:18:03;96470;;;16.1;53.5